Terminal Aerodrome Forecast
Issued by NWS

Home | Current Version | Previous Version | Text Only | Print | Product List | Glossary On
Versions: 1 2 3 4 5 6 7 8 9 10 11 12 13 14 15 16 17 18 19 20 21 22 23 24 25 26 27 28 29 30 31 32
000
FTAK31 PAJK 182322
TAFAKT
TAF
PAKT 182322Z 1900/1924 14012G18KT P6SM -SHRA SCT025 OVC035
      TEMPO 1900/1904 BKN025
     FM190400 15009KT 6SM -SHRA SCT015 BKN025 OVC035
     FM190900 15006KT P6SM -SHRA SCT025 OVC040
     AMD LTD TO CLD VIS AND WIND 1906/1915=

USA.gov is the U.S. government's official web portal to all federal, state and local government web resources and services.